• Join FlightAware (Why Join?)
  • Login
  • US Flag 
10:28AM EST


 

Airport Tracker/Info


-or-


 

Live Flight TrackerFlight Track Log ✈ SWA429 ✈ 10-May-2013 ✈ KMDW - KGSP

Flight Track Log - Related Links

Times and Time Zones

All times are in EDT time to prevent confusion due to time zone crossing. See the SWA429 flight status page for this flight to view local times or setup timezone preferences in your user account.

Time Position Orientation Groundspeed Altitude Reporting Facility
EDT Latitude Longitude Course Direction KTS MPH feet Rate Location/Type
12:41PM 41.8000 -87.7833 217° Southwest 169 194 2,100  Level Chicago TRACON
12:42PM 41.7500 -87.8333 217° Southwest 266 306 4,600 3,060 Climbing Chicago TRACON
12:43PM 41.6833 -87.7833 151° Southeast 276 318 8,300 2,820 Climbing Chicago TRACON
12:44PM 41.5839 -87.6983 147° Southeast 287 330 12,100 1,920 Climbing Chicago Center
12:45PM 41.5014 -87.6339 150° Southeast 337 388 13,600 1,860 Climbing Chicago Center
12:46PM 41.4108 -87.5717 153° Southeast 369 425 16,000 2,340 Climbing Chicago Center
12:47PM 41.3094 -87.5533 172° South 365 420 18,500 2,220 Climbing Chicago Center
12:48PM 41.1867 -87.5306 172° South 370 426 20,700 1,980 Climbing Chicago Center
12:49PM 41.0800 -87.5003 168° South 389 448 22,600 1,680 Climbing Chicago Center
12:51PM 40.9706 -87.4725 169° South 397 457 24,200 1,560 Climbing Chicago Center
12:52PM 40.8589 -87.4425 169° South 407 468 25,900 1,740 Climbing Chicago Center
12:53PM 40.7481 -87.4125 168° South 407 468 27,800 1,860 Climbing Chicago Center
12:54PM 40.6169 -87.3789 169° South 401 461 29,800 1,440 Climbing Chicago Center
12:55PM 40.5081 -87.3489 168° South 399 459 30,800 1,200 Climbing Chicago Center
12:56PM 40.4128 -87.3181 166° South 407 468 32,300 1,500 Climbing Chicago Center
12:57PM 40.2881 -87.2572 160° South 399 459 33,900 1,260 Climbing Chicago Center
12:58PM 40.1847 -87.2089 160° South 397 457 35,000 540 Climbing Chicago Center
12:59PM 40.1000 -87.1706 161° South 396 456 35,000  Level Indianapolis Center
01:00PM 39.9981 -87.1181 158° South 397 457 35,000  Level Indianapolis Center
01:01PM 39.9061 -87.0231 142° Southeast 421 484 35,000  Level Indianapolis Center
01:02PM 39.7975 -86.9081 141° Southeast 422 486 35,000  Level Indianapolis Center
01:03PM 39.7078 -86.8119 140° Southeast 423 487 35,000  Level Indianapolis Center
01:04PM 39.6169 -86.7156 141° Southeast 425 489 35,000  Level Indianapolis Center
01:05PM 39.5269 -86.6211 141° Southeast 423 487 35,000  Level Indianapolis Center
01:06PM 39.4206 -86.5086 141° Southeast 419 482 35,000  Level Indianapolis Center
01:07PM 39.3314 -86.4142 141° Southeast 419 482 35,000  Level Indianapolis Center
01:08PM 39.2417 -86.3211 141° Southeast 417 480 35,000  Level Indianapolis Center
01:09PM 39.1517 -86.2275 141° Southeast 418 481 35,000  Level Indianapolis Center
01:10PM 39.0625 -86.1347 141° Southeast 416 479 35,000  Level Indianapolis Center
01:11PM 38.9547 -86.0239 141° Southeast 415 478 35,000  Level Indianapolis Center
01:12PM 38.8689 -85.9353 141° Southeast 418 481 35,000  Level Indianapolis Center
01:13PM 38.7733 -85.8375 141° Southeast 421 484 35,000  Level Indianapolis Center
01:14PM 38.6814 -85.7436 141° Southeast 423 487 35,000  Level Indianapolis Center
01:15PM 38.5906 -85.6517 142° Southeast 425 489 35,000  Level Indianapolis Center
01:16PM 38.4794 -85.5378 141° Southeast 424 488 35,000  Level Indianapolis Center
01:17PM 38.3864 -85.4419 141° Southeast 424 488 35,000  Level Indianapolis Center
01:18PM 38.2900 -85.3461 142° Southeast 434 499 35,000  Level Indianapolis Center
01:19PM 38.1939 -85.2508 142° Southeast 435 501 35,000  Level Indianapolis Center
01:20PM 38.0917 -85.1469 141° Southeast 435 501 35,000  Level Indianapolis Center
01:21PM 37.9964 -85.0511 142° Southeast 438 504 35,000  Level Indianapolis Center
01:22PM 37.8994 -84.9558 142° Southeast 440 506 35,000 -180 Level Indianapolis Center
01:23PM 37.8033 -84.8597 142° Southeast 441 507 34,700 -660 Descending Indianapolis Center
01:24PM 37.7047 -84.7650 143° Southeast 443 510 33,700 -840 Descending Indianapolis Center
01:25PM 37.5919 -84.6536 142° Southeast 441 507 33,000 -360 Descending Indianapolis Center
01:27PM 37.4944 -84.5569 142° Southeast 445 512 33,000  Level Indianapolis Center
01:28PM 37.3964 -84.4608 142° Southeast 447 514 33,000  Level Indianapolis Center
01:29PM 37.2967 -84.3656 143° Southeast 449 517 33,000 -480 Level Indianapolis Center
01:30PM 37.1978 -84.2681 142° Southeast 451 519 32,100 -1,020 Descending Indianapolis Center
01:31PM 37.0828 -84.1572 142° Southeast 448 516 31,000 -1,140 Descending Indianapolis Center
01:32PM 36.9931 -84.0517 137° Southeast 446 513 29,800 -1,200 Descending Indianapolis Center
01:33PM 36.9089 -83.9353 132° Southeast 450 518 28,600 -1,200 Descending Indianapolis Center
01:34PM 36.8253 -83.8197 132° Southeast 449 517 27,400 -1,200 Descending Indianapolis Center
01:35PM 36.7400 -83.7036 132° Southeast 453 521 26,200 -1,440 Descending Indianapolis Center
01:36PM 36.6439 -83.5694 132° Southeast 448 516 24,500 -1,080 Descending Indianapolis Center
01:37PM 36.5622 -83.4586 133° Southeast 440 506 24,000 -300 Descending Indianapolis Center
01:38PM 36.4853 -83.3539 132° Southeast 419 482 24,000  Level Indianapolis Center
01:38PM 36.4461 -83.3058 135° Southeast 418 481 24,000 -720 Level Atlanta Center
01:39PM 36.3683 -83.1981 132° Southeast 418 481 23,000 -540 Descending Atlanta Center
01:40PM 36.2819 -83.1064 139° Southeast 413 475 23,000 -300 Level Atlanta Center
01:41PM 36.1939 -83.0172 141° Southeast 413 475 22,400 -900 Descending Atlanta Center
01:42PM 36.0992 -82.9336 144° Southeast 413 475 21,200 -720 Descending Atlanta Center
01:43PM 35.9944 -82.8864 160° South 398 458 21,000 -300 Descending Atlanta Center
01:44PM 35.9081 -82.8006 141° Southeast 393 452 20,700 -900 Descending Atlanta Center
01:45PM 35.8300 -82.7172 139° Southeast 393 452 19,300 -1,200 Descending Atlanta Center
01:46PM 35.7583 -82.6414 139° Southeast 386 444 18,400 -1,140 Descending Atlanta Center
01:47PM 35.6758 -82.5533 139° Southeast 362 417 17,100 -1,380 Descending Atlanta Center
01:48PM 35.6039 -82.4756 139° Southeast 354 407 15,700 -1,680 Descending Atlanta Center
01:49PM 35.5342 -82.4056 141° Southeast 341 392 13,800 -1,920 Descending Atlanta Center
01:50PM 35.4644 -82.3328 140° Southeast 335 386 11,900 -1,800 Descending Atlanta Center
01:51PM 35.3947 -82.2706 144° Southeast 320 368 10,300 -1,440 Descending Atlanta Center
01:52PM 35.3172 -82.2622 175° South 292 336 9,100 -1,260 Descending Atlanta Center
01:53PM 35.2525 -82.2458 168° South 273 314 7,800 -1,380 Descending Atlanta Center
01:54PM 35.1853 -82.2217 164° South 260 299 6,400 -1,380 Descending Atlanta Center
01:55PM 35.1225 -82.2028 166° South 244 281 5,100 -900 Descending Atlanta Center
01:56PM 35.0636 -82.1839 165° South 224 258 4,600 -960 Descending Atlanta Center
01:57PM 35.0175 -82.1722 168° South 192 221 3,200 3,180 Descending Atlanta Center
01:58PM 34.9569 -82.1583 169° South 192 221 11,000 7,800 Climbing Atlanta Center
02:00PM 34.8957 -82.2189 180° South  Level Estimated
02:07PM 34.8957 -82.2189 180° South  Level Estimated